sensor_id;sensor_type;location;lat;lon;timestamp;P1;durP1;ratioP1;P2;durP2;ratioP2
19030;SDS011;9648;51.130;13.978;2023-01-19T00:00:24;19.00;;;12.53;;
19030;SDS011;9648;51.130;13.978;2023-01-19T00:02:51;20.10;;;12.15;;
19030;SDS011;9648;51.130;13.978;2023-01-19T00:05:19;18.65;;;11.80;;
19030;SDS011;9648;51.130;13.978;2023-01-19T00:07:47;19.67;;;12.00;;
19030;SDS011;9648;51.130;13.978;2023-01-19T00:10:14;19.23;;;11.95;;
19030;SDS011;9648;51.130;13.978;2023-01-19T00:12:41;18.17;;;11.55;;
19030;SDS011;9648;51.130;13.978;2023-01-19T00:15:09;18.65;;;11.85;;
19030;SDS011;9648;51.130;13.978;2023-01-19T00:17:36;20.92;;;12.93;;
19030;SDS011;9648;51.130;13.978;2023-01-19T00:20:05;29.17;;;16.70;;
19030;SDS011;9648;51.130;13.978;2023-01-19T00:22:33;24.52;;;15.05;;
19030;SDS011;9648;51.130;13.978;2023-01-19T00:25:01;24.17;;;14.93;;
19030;SDS011;9648;51.130;13.978;2023-01-19T00:27:28;23.63;;;14.73;;
19030;SDS011;9648;51.130;13.978;2023-01-19T00:29:59;23.15;;;13.95;;
19030;SDS011;9648;51.130;13.978;2023-01-19T00:32:29;20.77;;;13.02;;
19030;SDS011;9648;51.130;13.978;2023-01-19T00:34:55;21.75;;;13.55;;
19030;SDS011;9648;51.130;13.978;2023-01-19T00:37:22;22.58;;;14.48;;
19030;SDS011;9648;51.130;13.978;2023-01-19T00:39:49;24.45;;;14.93;;
19030;SDS011;9648;51.130;13.978;2023-01-19T00:42:17;23.85;;;14.50;;
19030;SDS011;9648;51.130;13.978;2023-01-19T00:45:01;22.23;;;13.82;;
19030;SDS011;9648;51.130;13.978;2023-01-19T00:47:28;21.60;;;13.57;;
19030;SDS011;9648;51.130;13.978;2023-01-19T00:49:56;23.95;;;14.50;;
19030;SDS011;9648;51.130;13.978;2023-01-19T00:52:23;26.80;;;16.23;;
19030;SDS011;9648;51.130;13.978;2023-01-19T00:54:52;29.08;;;17.52;;
19030;SDS011;9648;51.130;13.978;2023-01-19T00:57:21;29.83;;;18.02;;
19030;SDS011;9648;51.130;13.978;2023-01-19T00:59:47;26.20;;;16.33;;
19030;SDS011;9648;51.130;13.978;2023-01-19T01:02:14;26.27;;;15.57;;
19030;SDS011;9648;51.130;13.978;2023-01-19T01:04:41;22.70;;;13.45;;
19030;SDS011;9648;51.130;13.978;2023-01-19T01:07:11;23.38;;;13.60;;
19030;SDS011;9648;51.130;13.978;2023-01-19T01:09:37;20.90;;;13.23;;
19030;SDS011;9648;51.130;13.978;2023-01-19T01:12:04;20.27;;;12.77;;
19030;SDS011;9648;51.130;13.978;2023-01-19T01:14:33;19.65;;;12.45;;
19030;SDS011;9648;51.130;13.978;2023-01-19T01:16:59;21.67;;;13.05;;
19030;SDS011;9648;51.130;13.978;2023-01-19T01:19:26;21.52;;;13.43;;
19030;SDS011;9648;51.130;13.978;2023-01-19T01:21:53;19.83;;;12.47;;
19030;SDS011;9648;51.130;13.978;2023-01-19T01:24:20;21.40;;;13.05;;
19030;SDS011;9648;51.130;13.978;2023-01-19T01:26:47;22.60;;;13.20;;
19030;SDS011;9648;51.130;13.978;2023-01-19T01:29:14;24.37;;;13.60;;
19030;SDS011;9648;51.130;13.978;2023-01-19T01:31:45;24.40;;;13.88;;
19030;SDS011;9648;51.130;13.978;2023-01-19T01:34:12;23.63;;;13.25;;
19030;SDS011;9648;51.130;13.978;2023-01-19T01:36:38;22.15;;;13.07;;
19030;SDS011;9648;51.130;13.978;2023-01-19T01:39:05;24.33;;;14.00;;
19030;SDS011;9648;51.130;13.978;2023-01-19T01:41:32;27.75;;;14.55;;
19030;SDS011;9648;51.130;13.978;2023-01-19T01:43:59;24.73;;;13.65;;
19030;SDS011;9648;51.130;13.978;2023-01-19T01:46:30;25.58;;;14.00;;
19030;SDS011;9648;51.130;13.978;2023-01-19T01:49:00;21.65;;;12.25;;
19030;SDS011;9648;51.130;13.978;2023-01-19T01:51:31;22.35;;;12.30;;
19030;SDS011;9648;51.130;13.978;2023-01-19T01:54:11;20.95;;;12.68;;
19030;SDS011;9648;51.130;13.978;2023-01-19T01:56:42;22.77;;;12.85;;
19030;SDS011;9648;51.130;13.978;2023-01-19T01:59:12;19.92;;;12.07;;
19030;SDS011;9648;51.130;13.978;2023-01-19T02:01:49;21.75;;;12.45;;
19030;SDS011;9648;51.130;13.978;2023-01-19T02:04:36;21.73;;;12.80;;
19030;SDS011;9648;51.130;13.978;2023-01-19T02:07:05;21.37;;;12.13;;
19030;SDS011;9648;51.130;13.978;2023-01-19T02:09:49;19.30;;;10.95;;
19030;SDS011;9648;51.130;13.978;2023-01-19T02:12:34;18.00;;;11.20;;
19030;SDS011;9648;51.130;13.978;2023-01-19T02:15:18;16.63;;;10.20;;
19030;SDS011;9648;51.130;13.978;2023-01-19T02:17:45;15.18;;;9.75;;
19030;SDS011;9648;51.130;13.978;2023-01-19T02:20:14;16.25;;;10.30;;
19030;SDS011;9648;51.130;13.978;2023-01-19T02:22:44;19.30;;;11.68;;
19030;SDS011;9648;51.130;13.978;2023-01-19T02:25:14;20.83;;;12.38;;
19030;SDS011;9648;51.130;13.978;2023-01-19T02:27:43;19.13;;;12.18;;
19030;SDS011;9648;51.130;13.978;2023-01-19T02:30:13;20.23;;;12.05;;
19030;SDS011;9648;51.130;13.978;2023-01-19T02:32:41;19.50;;;11.40;;
19030;SDS011;9648;51.130;13.978;2023-01-19T02:35:09;20.27;;;11.65;;
19030;SDS011;9648;51.130;13.978;2023-01-19T02:37:36;19.33;;;11.77;;
19030;SDS011;9648;51.130;13.978;2023-01-19T02:40:07;17.73;;;10.95;;
19030;SDS011;9648;51.130;13.978;2023-01-19T02:42:38;17.17;;;11.13;;
19030;SDS011;9648;51.130;13.978;2023-01-19T02:45:09;17.48;;;10.60;;
19030;SDS011;9648;51.130;13.978;2023-01-19T02:47:39;17.88;;;10.75;;
19030;SDS011;9648;51.130;13.978;2023-01-19T02:53:07;17.42;;;10.77;;
19030;SDS011;9648;51.130;13.978;2023-01-19T02:55:43;16.05;;;10.60;;
19030;SDS011;9648;51.130;13.978;2023-01-19T02:58:18;17.07;;;11.20;;
19030;SDS011;9648;51.130;13.978;2023-01-19T03:00:49;18.93;;;11.43;;
19030;SDS011;9648;51.130;13.978;2023-01-19T03:03:24;19.37;;;11.83;;
19030;SDS011;9648;51.130;13.978;2023-01-19T03:05:57;17.70;;;11.63;;
19030;SDS011;9648;51.130;13.978;2023-01-19T03:08:32;21.30;;;12.82;;
19030;SDS011;9648;51.130;13.978;2023-01-19T03:11:08;25.67;;;15.55;;
19030;SDS011;9648;51.130;13.978;2023-01-19T03:13:40;21.73;;;13.50;;
19030;SDS011;9648;51.130;13.978;2023-01-19T03:16:16;23.80;;;13.48;;
19030;SDS011;9648;51.130;13.978;2023-01-19T03:18:48;20.10;;;12.90;;
19030;SDS011;9648;51.130;13.978;2023-01-19T03:21:18;17.58;;;11.30;;
19030;SDS011;9648;51.130;13.978;2023-01-19T03:23:47;17.63;;;10.68;;
19030;SDS011;9648;51.130;13.978;2023-01-19T03:26:17;15.77;;;10.05;;
19030;SDS011;9648;51.130;13.978;2023-01-19T03:28:48;17.92;;;11.20;;
19030;SDS011;9648;51.130;13.978;2023-01-19T03:31:18;16.95;;;10.93;;
19030;SDS011;9648;51.130;13.978;2023-01-19T03:33:48;20.80;;;12.25;;
19030;SDS011;9648;51.130;13.978;2023-01-19T03:36:18;18.33;;;11.52;;
19030;SDS011;9648;51.130;13.978;2023-01-19T03:38:48;18.15;;;11.48;;
19030;SDS011;9648;51.130;13.978;2023-01-19T03:41:17;18.52;;;10.95;;
19030;SDS011;9648;51.130;13.978;2023-01-19T03:43:48;19.30;;;11.80;;
19030;SDS011;9648;51.130;13.978;2023-01-19T03:46:16;18.25;;;11.88;;
19030;SDS011;9648;51.130;13.978;2023-01-19T03:48:45;18.00;;;11.07;;
19030;SDS011;9648;51.130;13.978;2023-01-19T03:51:13;20.05;;;11.93;;
19030;SDS011;9648;51.130;13.978;2023-01-19T03:53:41;19.13;;;11.45;;
19030;SDS011;9648;51.130;13.978;2023-01-19T03:56:10;20.20;;;11.90;;
19030;SDS011;9648;51.130;13.978;2023-01-19T03:58:43;19.40;;;11.77;;
19030;SDS011;9648;51.130;13.978;2023-01-19T04:01:11;18.80;;;11.45;;
19030;SDS011;9648;51.130;13.978;2023-01-19T04:03:38;18.02;;;11.10;;
19030;SDS011;9648;51.130;13.978;2023-01-19T04:06:05;18.45;;;11.18;;
19030;SDS011;9648;51.130;13.978;2023-01-19T04:08:33;18.98;;;10.82;;
19030;SDS011;9648;51.130;13.978;2023-01-19T04:11:03;16.55;;;11.07;;
19030;SDS011;9648;51.130;13.978;2023-01-19T04:13:30;18.90;;;10.80;;
19030;SDS011;9648;51.130;13.978;2023-01-19T04:15:58;16.73;;;10.20;;
19030;SDS011;9648;51.130;13.978;2023-01-19T04:18:27;15.73;;;10.10;;
19030;SDS011;9648;51.130;13.978;2023-01-19T04:20:54;15.98;;;10.25;;
19030;SDS011;9648;51.130;13.978;2023-01-19T04:23:25;17.48;;;10.40;;
19030;SDS011;9648;51.130;13.978;2023-01-19T04:25:55;17.25;;;10.20;;
19030;SDS011;9648;51.130;13.978;2023-01-19T04:28:25;18.75;;;10.55;;
19030;SDS011;9648;51.130;13.978;2023-01-19T04:30:52;37.75;;;17.85;;
19030;SDS011;9648;51.130;13.978;2023-01-19T04:33:19;37.47;;;19.05;;
19030;SDS011;9648;51.130;13.978;2023-01-19T04:35:49;46.43;;;22.70;;
19030;SDS011;9648;51.130;13.978;2023-01-19T04:38:17;46.75;;;22.90;;
19030;SDS011;9648;51.130;13.978;2023-01-19T04:40:44;41.67;;;20.73;;
19030;SDS011;9648;51.130;13.978;2023-01-19T04:43:12;34.80;;;17.75;;
19030;SDS011;9648;51.130;13.978;2023-01-19T04:45:39;34.78;;;17.85;;
19030;SDS011;9648;51.130;13.978;2023-01-19T04:48:08;34.67;;;17.00;;
19030;SDS011;9648;51.130;13.978;2023-01-19T04:50:34;30.40;;;14.25;;
19030;SDS011;9648;51.130;13.978;2023-01-19T04:53:03;24.52;;;13.15;;
19030;SDS011;9648;51.130;13.978;2023-01-19T04:55:29;21.95;;;12.15;;
19030;SDS011;9648;51.130;13.978;2023-01-19T04:57:56;19.73;;;10.85;;
19030;SDS011;9648;51.130;13.978;2023-01-19T05:00:23;17.33;;;10.43;;
19030;SDS011;9648;51.130;13.978;2023-01-19T05:02:50;15.98;;;9.40;;
19030;SDS011;9648;51.130;13.978;2023-01-19T05:05:17;17.95;;;9.82;;
19030;SDS011;9648;51.130;13.978;2023-01-19T05:07:44;18.85;;;10.13;;
19030;SDS011;9648;51.130;13.978;2023-01-19T05:10:12;17.25;;;10.20;;
19030;SDS011;9648;51.130;13.978;2023-01-19T05:12:40;18.85;;;10.55;;
19030;SDS011;9648;51.130;13.978;2023-01-19T05:15:07;20.90;;;11.47;;
19030;SDS011;9648;51.130;13.978;2023-01-19T05:17:35;19.13;;;11.07;;
19030;SDS011;9648;51.130;13.978;2023-01-19T05:20:02;19.45;;;10.70;;
19030;SDS011;9648;51.130;13.978;2023-01-19T05:22:29;19.55;;;10.55;;
19030;SDS011;9648;51.130;13.978;2023-01-19T05:24:56;17.83;;;10.15;;
19030;SDS011;9648;51.130;13.978;2023-01-19T05:27:25;17.60;;;10.30;;
19030;SDS011;9648;51.130;13.978;2023-01-19T05:29:52;18.92;;;11.30;;
19030;SDS011;9648;51.130;13.978;2023-01-19T05:32:18;22.33;;;13.13;;
19030;SDS011;9648;51.130;13.978;2023-01-19T05:34:45;20.45;;;12.00;;
19030;SDS011;9648;51.130;13.978;2023-01-19T05:37:12;22.60;;;13.48;;
19030;SDS011;9648;51.130;13.978;2023-01-19T05:39:39;22.00;;;13.02;;
19030;SDS011;9648;51.130;13.978;2023-01-19T05:42:06;21.17;;;12.18;;
19030;SDS011;9648;51.130;13.978;2023-01-19T05:44:34;19.23;;;10.20;;
19030;SDS011;9648;51.130;13.978;2023-01-19T05:47:01;16.10;;;9.38;;
19030;SDS011;9648;51.130;13.978;2023-01-19T05:49:27;17.02;;;10.02;;
19030;SDS011;9648;51.130;13.978;2023-01-19T05:51:54;18.77;;;10.33;;
19030;SDS011;9648;51.130;13.978;2023-01-19T05:54:21;18.80;;;10.75;;
19030;SDS011;9648;51.130;13.978;2023-01-19T05:56:48;19.23;;;11.63;;
19030;SDS011;9648;51.130;13.978;2023-01-19T05:59:15;17.95;;;10.55;;
19030;SDS011;9648;51.130;13.978;2023-01-19T06:01:49;16.63;;;9.80;;
19030;SDS011;9648;51.130;13.978;2023-01-19T06:04:16;15.60;;;9.50;;
19030;SDS011;9648;51.130;13.978;2023-01-19T06:06:43;17.13;;;8.93;;
19030;SDS011;9648;51.130;13.978;2023-01-19T06:09:12;14.85;;;8.75;;
19030;SDS011;9648;51.130;13.978;2023-01-19T06:11:39;11.83;;;7.37;;
19030;SDS011;9648;51.130;13.978;2023-01-19T06:14:06;12.43;;;7.68;;
19030;SDS011;9648;51.130;13.978;2023-01-19T06:16:34;13.50;;;8.52;;
19030;SDS011;9648;51.130;13.978;2023-01-19T06:19:02;17.17;;;9.90;;
19030;SDS011;9648;51.130;13.978;2023-01-19T06:21:29;17.05;;;10.50;;
19030;SDS011;9648;51.130;13.978;2023-01-19T06:23:56;19.42;;;11.20;;
19030;SDS011;9648;51.130;13.978;2023-01-19T06:26:23;17.75;;;10.80;;
19030;SDS011;9648;51.130;13.978;2023-01-19T06:28:53;17.63;;;11.02;;
19030;SDS011;9648;51.130;13.978;2023-01-19T06:31:20;17.83;;;10.73;;
19030;SDS011;9648;51.130;13.978;2023-01-19T06:33:47;16.30;;;9.60;;
19030;SDS011;9648;51.130;13.978;2023-01-19T06:36:16;14.50;;;8.85;;
19030;SDS011;9648;51.130;13.978;2023-01-19T06:38:43;12.27;;;7.70;;
19030;SDS011;9648;51.130;13.978;2023-01-19T06:41:10;13.18;;;7.43;;
19030;SDS011;9648;51.130;13.978;2023-01-19T06:43:37;10.70;;;6.95;;
19030;SDS011;9648;51.130;13.978;2023-01-19T06:46:04;12.00;;;6.80;;
19030;SDS011;9648;51.130;13.978;2023-01-19T06:48:31;11.30;;;6.40;;
19030;SDS011;9648;51.130;13.978;2023-01-19T06:50:58;12.05;;;7.30;;
19030;SDS011;9648;51.130;13.978;2023-01-19T06:53:26;10.90;;;6.80;;
19030;SDS011;9648;51.130;13.978;2023-01-19T06:55:56;11.20;;;6.43;;
19030;SDS011;9648;51.130;13.978;2023-01-19T06:58:24;13.02;;;6.60;;
19030;SDS011;9648;51.130;13.978;2023-01-19T07:00:51;10.77;;;7.28;;
19030;SDS011;9648;51.130;13.978;2023-01-19T07:03:21;11.52;;;6.72;;
19030;SDS011;9648;51.130;13.978;2023-01-19T07:05:51;11.13;;;6.70;;
19030;SDS011;9648;51.130;13.978;2023-01-19T07:08:19;13.00;;;7.73;;
19030;SDS011;9648;51.130;13.978;2023-01-19T07:10:47;13.57;;;8.20;;
19030;SDS011;9648;51.130;13.978;2023-01-19T07:13:14;13.68;;;8.15;;
19030;SDS011;9648;51.130;13.978;2023-01-19T07:15:40;14.70;;;8.70;;
19030;SDS011;9648;51.130;13.978;2023-01-19T07:18:07;12.95;;;8.23;;
19030;SDS011;9648;51.130;13.978;2023-01-19T07:20:34;14.50;;;8.33;;
19030;SDS011;9648;51.130;13.978;2023-01-19T07:23:02;14.27;;;9.20;;
19030;SDS011;9648;51.130;13.978;2023-01-19T07:25:29;15.25;;;9.13;;
19030;SDS011;9648;51.130;13.978;2023-01-19T07:27:57;17.30;;;9.93;;
19030;SDS011;9648;51.130;13.978;2023-01-19T07:30:26;16.33;;;9.30;;
19030;SDS011;9648;51.130;13.978;2023-01-19T07:32:53;14.88;;;8.85;;
19030;SDS011;9648;51.130;13.978;2023-01-19T07:35:22;13.05;;;8.25;;
19030;SDS011;9648;51.130;13.978;2023-01-19T07:37:49;13.65;;;7.63;;
19030;SDS011;9648;51.130;13.978;2023-01-19T07:40:19;12.38;;;7.05;;
19030;SDS011;9648;51.130;13.978;2023-01-19T07:42:46;14.85;;;8.18;;
19030;SDS011;9648;51.130;13.978;2023-01-19T07:45:16;13.02;;;8.13;;
19030;SDS011;9648;51.130;13.978;2023-01-19T07:47:44;10.93;;;6.65;;
19030;SDS011;9648;51.130;13.978;2023-01-19T07:50:12;11.38;;;6.22;;
19030;SDS011;9648;51.130;13.978;2023-01-19T07:52:40;10.88;;;6.38;;
19030;SDS011;9648;51.130;13.978;2023-01-19T07:55:07;9.85;;;6.35;;
19030;SDS011;9648;51.130;13.978;2023-01-19T07:57:35;11.05;;;6.18;;
19030;SDS011;9648;51.130;13.978;2023-01-19T08:00:02;9.80;;;6.18;;
19030;SDS011;9648;51.130;13.978;2023-01-19T08:02:31;9.20;;;5.70;;
19030;SDS011;9648;51.130;13.978;2023-01-19T08:05:00;8.65;;;5.22;;
19030;SDS011;9648;51.130;13.978;2023-01-19T08:07:26;9.20;;;5.90;;
19030;SDS011;9648;51.130;13.978;2023-01-19T08:09:53;10.07;;;5.85;;
19030;SDS011;9648;51.130;13.978;2023-01-19T08:12:20;8.88;;;5.60;;
19030;SDS011;9648;51.130;13.978;2023-01-19T08:14:47;11.30;;;7.03;;
19030;SDS011;9648;51.130;13.978;2023-01-19T08:17:13;12.13;;;7.00;;
19030;SDS011;9648;51.130;13.978;2023-01-19T08:19:42;12.15;;;7.10;;
19030;SDS011;9648;51.130;13.978;2023-01-19T08:22:09;11.95;;;7.28;;
19030;SDS011;9648;51.130;13.978;2023-01-19T08:24:36;13.35;;;8.00;;
19030;SDS011;9648;51.130;13.978;2023-01-19T08:27:03;12.63;;;7.80;;
19030;SDS011;9648;51.130;13.978;2023-01-19T08:29:29;10.45;;;6.80;;
19030;SDS011;9648;51.130;13.978;2023-01-19T08:31:57;9.90;;;6.30;;
19030;SDS011;9648;51.130;13.978;2023-01-19T08:34:27;9.45;;;5.80;;
19030;SDS011;9648;51.130;13.978;2023-01-19T08:36:59;10.75;;;5.88;;
19030;SDS011;9648;51.130;13.978;2023-01-19T08:39:26;8.55;;;5.55;;
19030;SDS011;9648;51.130;13.978;2023-01-19T08:41:52;7.80;;;5.38;;
19030;SDS011;9648;51.130;13.978;2023-01-19T08:44:19;8.07;;;5.45;;
19030;SDS011;9648;51.130;13.978;2023-01-19T08:46:46;7.57;;;5.07;;
19030;SDS011;9648;51.130;13.978;2023-01-19T08:49:13;8.27;;;5.28;;
19030;SDS011;9648;51.130;13.978;2023-01-19T08:51:39;8.33;;;5.17;;
19030;SDS011;9648;51.130;13.978;2023-01-19T08:54:11;8.38;;;5.50;;
19030;SDS011;9648;51.130;13.978;2023-01-19T08:56:39;9.93;;;5.60;;
19030;SDS011;9648;51.130;13.978;2023-01-19T08:59:06;8.63;;;5.63;;
19030;SDS011;9648;51.130;13.978;2023-01-19T09:01:33;9.30;;;5.03;;
19030;SDS011;9648;51.130;13.978;2023-01-19T09:04:00;7.78;;;5.15;;
19030;SDS011;9648;51.130;13.978;2023-01-19T09:06:27;8.13;;;5.20;;
19030;SDS011;9648;51.130;13.978;2023-01-19T09:08:54;8.57;;;5.60;;
19030;SDS011;9648;51.130;13.978;2023-01-19T09:11:22;8.25;;;5.60;;
19030;SDS011;9648;51.130;13.978;2023-01-19T09:13:49;8.80;;;5.70;;
19030;SDS011;9648;51.130;13.978;2023-01-19T09:16:16;8.90;;;5.80;;
19030;SDS011;9648;51.130;13.978;2023-01-19T09:18:43;11.27;;;6.30;;
19030;SDS011;9648;51.130;13.978;2023-01-19T09:21:10;12.23;;;8.10;;
19030;SDS011;9648;51.130;13.978;2023-01-19T09:23:37;12.35;;;7.85;;
19030;SDS011;9648;51.130;13.978;2023-01-19T09:26:04;11.70;;;7.78;;
19030;SDS011;9648;51.130;13.978;2023-01-19T09:28:36;11.45;;;7.50;;
19030;SDS011;9648;51.130;13.978;2023-01-19T09:31:04;14.85;;;9.70;;
19030;SDS011;9648;51.130;13.978;2023-01-19T09:33:31;12.52;;;8.43;;
19030;SDS011;9648;51.130;13.978;2023-01-19T09:35:59;11.45;;;7.80;;
19030;SDS011;9648;51.130;13.978;2023-01-19T09:38:26;24.83;;;17.52;;
19030;SDS011;9648;51.130;13.978;2023-01-19T09:40:55;20.00;;;14.48;;
19030;SDS011;9648;51.130;13.978;2023-01-19T09:43:27;18.73;;;13.45;;
19030;SDS011;9648;51.130;13.978;2023-01-19T09:46:04;16.67;;;10.65;;
19030;SDS011;9648;51.130;13.978;2023-01-19T09:48:46;13.98;;;9.70;;
19030;SDS011;9648;51.130;13.978;2023-01-19T09:51:17;14.53;;;8.80;;
19030;SDS011;9648;51.130;13.978;2023-01-19T09:53:51;13.67;;;8.87;;
19030;SDS011;9648;51.130;13.978;2023-01-19T09:56:26;13.18;;;8.52;;
19030;SDS011;9648;51.130;13.978;2023-01-19T09:58:54;13.18;;;8.63;;
19030;SDS011;9648;51.130;13.978;2023-01-19T10:01:25;13.40;;;7.70;;
19030;SDS011;9648;51.130;13.978;2023-01-19T10:04:06;10.17;;;5.60;;
19030;SDS011;9648;51.130;13.978;2023-01-19T10:06:44;7.90;;;5.00;;
19030;SDS011;9648;51.130;13.978;2023-01-19T10:09:14;6.60;;;4.32;;
19030;SDS011;9648;51.130;13.978;2023-01-19T10:11:50;7.55;;;4.60;;
19030;SDS011;9648;51.130;13.978;2023-01-19T10:14:24;10.52;;;6.07;;
19030;SDS011;9648;51.130;13.978;2023-01-19T10:16:59;12.20;;;7.13;;
19030;SDS011;9648;51.130;13.978;2023-01-19T10:19:34;11.27;;;6.78;;
19030;SDS011;9648;51.130;13.978;2023-01-19T10:22:08;11.82;;;6.82;;
19030;SDS011;9648;51.130;13.978;2023-01-19T10:24:42;9.52;;;6.00;;
19030;SDS011;9648;51.130;13.978;2023-01-19T10:27:12;9.73;;;6.03;;
19030;SDS011;9648;51.130;13.978;2023-01-19T10:29:42;8.90;;;5.60;;
19030;SDS011;9648;51.130;13.978;2023-01-19T10:32:13;11.18;;;6.43;;
19030;SDS011;9648;51.130;13.978;2023-01-19T10:34:43;9.02;;;5.78;;
19030;SDS011;9648;51.130;13.978;2023-01-19T10:37:14;10.20;;;5.90;;
19030;SDS011;9648;51.130;13.978;2023-01-19T10:39:46;9.85;;;5.57;;
19030;SDS011;9648;51.130;13.978;2023-01-19T10:42:19;7.70;;;4.93;;
19030;SDS011;9648;51.130;13.978;2023-01-19T10:44:45;7.75;;;4.80;;
19030;SDS011;9648;51.130;13.978;2023-01-19T10:47:17;7.10;;;4.78;;
19030;SDS011;9648;51.130;13.978;2023-01-19T10:49:45;8.77;;;4.88;;
19030;SDS011;9648;51.130;13.978;2023-01-19T10:52:18;9.18;;;5.25;;
19030;SDS011;9648;51.130;13.978;2023-01-19T10:54:51;9.45;;;5.00;;
19030;SDS011;9648;51.130;13.978;2023-01-19T10:57:21;7.57;;;4.90;;
19030;SDS011;9648;51.130;13.978;2023-01-19T10:59:56;8.07;;;4.72;;
19030;SDS011;9648;51.130;13.978;2023-01-19T11:02:25;6.63;;;4.20;;
19030;SDS011;9648;51.130;13.978;2023-01-19T11:04:54;6.63;;;4.25;;
19030;SDS011;9648;51.130;13.978;2023-01-19T11:07:24;7.03;;;4.18;;
19030;SDS011;9648;51.130;13.978;2023-01-19T11:10:18;6.25;;;3.85;;
19030;SDS011;9648;51.130;13.978;2023-01-19T11:12:54;6.70;;;4.05;;
19030;SDS011;9648;51.130;13.978;2023-01-19T11:15:30;6.32;;;3.92;;
19030;SDS011;9648;51.130;13.978;2023-01-19T11:18:00;6.28;;;3.63;;
19030;SDS011;9648;51.130;13.978;2023-01-19T11:20:29;6.38;;;3.88;;
19030;SDS011;9648;51.130;13.978;2023-01-19T11:23:03;9.63;;;6.05;;
19030;SDS011;9648;51.130;13.978;2023-01-19T11:25:32;10.13;;;7.25;;
19030;SDS011;9648;51.130;13.978;2023-01-19T11:28:01;9.67;;;7.13;;
19030;SDS011;9648;51.130;13.978;2023-01-19T11:30:28;10.55;;;6.90;;
19030;SDS011;9648;51.130;13.978;2023-01-19T11:32:55;12.80;;;7.82;;
19030;SDS011;9648;51.130;13.978;2023-01-19T11:38:15;10.20;;;6.22;;
19030;SDS011;9648;51.130;13.978;2023-01-19T11:40:47;7.60;;;5.50;;
19030;SDS011;9648;51.130;13.978;2023-01-19T11:43:18;9.73;;;5.72;;
19030;SDS011;9648;51.130;13.978;2023-01-19T11:45:46;6.78;;;3.80;;
19030;SDS011;9648;51.130;13.978;2023-01-19T11:48:16;6.55;;;3.70;;
19030;SDS011;9648;51.130;13.978;2023-01-19T11:50:50;5.30;;;3.97;;
19030;SDS011;9648;51.130;13.978;2023-01-19T11:53:17;5.93;;;3.80;;
19030;SDS011;9648;51.130;13.978;2023-01-19T11:55:50;5.00;;;3.17;;
19030;SDS011;9648;51.130;13.978;2023-01-19T11:58:22;5.57;;;3.55;;
19030;SDS011;9648;51.130;13.978;2023-01-19T12:00:51;6.18;;;3.70;;
19030;SDS011;9648;51.130;13.978;2023-01-19T12:03:22;5.78;;;3.75;;
19030;SDS011;9648;51.130;13.978;2023-01-19T12:05:57;6.53;;;4.00;;
19030;SDS011;9648;51.130;13.978;2023-01-19T12:08:28;6.83;;;3.90;;
19030;SDS011;9648;51.130;13.978;2023-01-19T12:11:00;6.90;;;4.20;;
19030;SDS011;9648;51.130;13.978;2023-01-19T12:13:29;5.50;;;3.78;;
19030;SDS011;9648;51.130;13.978;2023-01-19T12:15:58;6.80;;;4.10;;
19030;SDS011;9648;51.130;13.978;2023-01-19T12:18:31;6.13;;;3.90;;
19030;SDS011;9648;51.130;13.978;2023-01-19T12:21:03;7.43;;;4.00;;
19030;SDS011;9648;51.130;13.978;2023-01-19T12:23:39;6.25;;;3.83;;
19030;SDS011;9648;51.130;13.978;2023-01-19T12:26:21;7.15;;;4.50;;
19030;SDS011;9648;51.130;13.978;2023-01-19T12:28:53;7.37;;;4.37;;
19030;SDS011;9648;51.130;13.978;2023-01-19T12:31:22;7.57;;;4.43;;
19030;SDS011;9648;51.130;13.978;2023-01-19T12:33:49;9.43;;;4.78;;
19030;SDS011;9648;51.130;13.978;2023-01-19T12:39:04;7.20;;;4.80;;
19030;SDS011;9648;51.130;13.978;2023-01-19T12:41:44;7.57;;;5.00;;
19030;SDS011;9648;51.130;13.978;2023-01-19T12:44:23;6.65;;;4.22;;
19030;SDS011;9648;51.130;13.978;2023-01-19T12:46:55;6.95;;;4.60;;
19030;SDS011;9648;51.130;13.978;2023-01-19T12:49:28;8.95;;;5.63;;
19030;SDS011;9648;51.130;13.978;2023-01-19T12:52:16;8.35;;;4.78;;
19030;SDS011;9648;51.130;13.978;2023-01-19T12:54:52;8.27;;;5.28;;
19030;SDS011;9648;51.130;13.978;2023-01-19T12:57:24;8.73;;;5.33;;
19030;SDS011;9648;51.130;13.978;2023-01-19T12:59:56;10.90;;;5.78;;
19030;SDS011;9648;51.130;13.978;2023-01-19T13:05:18;8.38;;;5.53;;
19030;SDS011;9648;51.130;13.978;2023-01-19T13:10:59;7.20;;;5.15;;
19030;SDS011;9648;51.130;13.978;2023-01-19T13:13:39;8.25;;;4.97;;
19030;SDS011;9648;51.130;13.978;2023-01-19T13:19:12;7.90;;;5.13;;
19030;SDS011;9648;51.130;13.978;2023-01-19T13:21:41;7.20;;;4.87;;
19030;SDS011;9648;51.130;13.978;2023-01-19T13:24:11;8.10;;;5.45;;
19030;SDS011;9648;51.130;13.978;2023-01-19T13:26:41;7.55;;;5.10;;
19030;SDS011;9648;51.130;13.978;2023-01-19T13:29:21;8.68;;;5.32;;
19030;SDS011;9648;51.130;13.978;2023-01-19T13:31:54;8.05;;;5.00;;
19030;SDS011;9648;51.130;13.978;2023-01-19T13:34:26;8.23;;;5.07;;
19030;SDS011;9648;51.130;13.978;2023-01-19T13:36:55;8.05;;;5.05;;
19030;SDS011;9648;51.130;13.978;2023-01-19T13:39:28;9.55;;;5.55;;
19030;SDS011;9648;51.130;13.978;2023-01-19T13:42:00;10.35;;;7.20;;
19030;SDS011;9648;51.130;13.978;2023-01-19T13:44:30;10.87;;;7.17;;
19030;SDS011;9648;51.130;13.978;2023-01-19T13:47:01;13.45;;;7.97;;
19030;SDS011;9648;51.130;13.978;2023-01-19T13:49:30;11.90;;;7.40;;
19030;SDS011;9648;51.130;13.978;2023-01-19T13:52:03;13.02;;;7.28;;
19030;SDS011;9648;51.130;13.978;2023-01-19T13:54:46;9.55;;;6.00;;
19030;SDS011;9648;51.130;13.978;2023-01-19T13:57:24;11.45;;;6.90;;
19030;SDS011;9648;51.130;13.978;2023-01-19T14:00:03;13.05;;;8.25;;
19030;SDS011;9648;51.130;13.978;2023-01-19T14:02:31;12.35;;;8.50;;
19030;SDS011;9648;51.130;13.978;2023-01-19T14:05:09;11.35;;;7.18;;
19030;SDS011;9648;51.130;13.978;2023-01-19T14:07:38;10.23;;;6.65;;
19030;SDS011;9648;51.130;13.978;2023-01-19T14:10:10;10.95;;;5.78;;
19030;SDS011;9648;51.130;13.978;2023-01-19T14:12:39;7.80;;;5.40;;
19030;SDS011;9648;51.130;13.978;2023-01-19T14:15:07;7.50;;;4.90;;
19030;SDS011;9648;51.130;13.978;2023-01-19T14:17:38;7.18;;;4.78;;
19030;SDS011;9648;51.130;13.978;2023-01-19T14:20:06;9.25;;;5.45;;
19030;SDS011;9648;51.130;13.978;2023-01-19T14:22:53;7.97;;;5.20;;
19030;SDS011;9648;51.130;13.978;2023-01-19T14:25:25;8.23;;;5.15;;
19030;SDS011;9648;51.130;13.978;2023-01-19T14:30:52;11.07;;;6.70;;
19030;SDS011;9648;51.130;13.978;2023-01-19T14:33:32;8.18;;;5.60;;
19030;SDS011;9648;51.130;13.978;2023-01-19T14:36:09;7.68;;;4.90;;
19030;SDS011;9648;51.130;13.978;2023-01-19T14:38:44;6.93;;;4.72;;
19030;SDS011;9648;51.130;13.978;2023-01-19T14:41:21;7.43;;;4.40;;
19030;SDS011;9648;51.130;13.978;2023-01-19T14:43:54;5.88;;;4.05;;
19030;SDS011;9648;51.130;13.978;2023-01-19T14:46:22;6.50;;;3.83;;
19030;SDS011;9648;51.130;13.978;2023-01-19T14:48:50;6.93;;;4.20;;
19030;SDS011;9648;51.130;13.978;2023-01-19T14:51:21;5.70;;;4.33;;
19030;SDS011;9648;51.130;13.978;2023-01-19T14:53:50;7.68;;;5.00;;
19030;SDS011;9648;51.130;13.978;2023-01-19T14:56:42;9.88;;;5.68;;
19030;SDS011;9648;51.130;13.978;2023-01-19T14:59:09;10.23;;;6.43;;
19030;SDS011;9648;51.130;13.978;2023-01-19T15:01:38;11.68;;;7.20;;
19030;SDS011;9648;51.130;13.978;2023-01-19T15:04:04;12.52;;;7.40;;
19030;SDS011;9648;51.130;13.978;2023-01-19T15:06:31;12.85;;;8.90;;
19030;SDS011;9648;51.130;13.978;2023-01-19T15:09:04;10.32;;;7.57;;